sensor_id;sensor_type;location;lat;lon;timestamp;P1;durP1;ratioP1;P2;durP2;ratioP2
8574;SDS011;4325;42.520;27.448;2022-08-14T00:01:06;17.63;;;15.67;;
8574;SDS011;4325;42.520;27.448;2022-08-14T00:03:33;18.40;;;16.30;;
8574;SDS011;4325;42.520;27.448;2022-08-14T00:06:01;19.07;;;17.40;;
8574;SDS011;4325;42.520;27.448;2022-08-14T00:08:29;18.83;;;16.90;;
8574;SDS011;4325;42.520;27.448;2022-08-14T00:10:58;20.03;;;17.80;;
8574;SDS011;4325;42.520;27.448;2022-08-14T00:13:25;22.53;;;16.80;;
8574;SDS011;4325;42.520;27.448;2022-08-14T00:15:54;18.70;;;16.80;;
8574;SDS011;4325;42.520;27.448;2022-08-14T00:18:22;17.60;;;16.00;;
8574;SDS011;4325;42.520;27.448;2022-08-14T00:20:50;17.50;;;15.70;;
8574;SDS011;4325;42.520;27.448;2022-08-14T00:23:17;18.67;;;16.87;;
8574;SDS011;4325;42.520;27.448;2022-08-14T00:25:45;19.03;;;16.50;;
8574;SDS011;4325;42.520;27.448;2022-08-14T00:28:15;17.27;;;15.67;;
8574;SDS011;4325;42.520;27.448;2022-08-14T00:30:43;17.23;;;15.53;;
8574;SDS011;4325;42.520;27.448;2022-08-14T00:33:11;18.80;;;16.87;;
8574;SDS011;4325;42.520;27.448;2022-08-14T00:35:38;20.03;;;16.23;;
8574;SDS011;4325;42.520;27.448;2022-08-14T00:38:05;22.33;;;16.73;;
8574;SDS011;4325;42.520;27.448;2022-08-14T00:40:31;19.73;;;17.33;;
8574;SDS011;4325;42.520;27.448;2022-08-14T00:42:58;20.37;;;16.60;;
8574;SDS011;4325;42.520;27.448;2022-08-14T00:45:28;19.07;;;16.83;;
8574;SDS011;4325;42.520;27.448;2022-08-14T00:47:54;19.30;;;16.53;;
8574;SDS011;4325;42.520;27.448;2022-08-14T00:50:22;18.77;;;16.93;;
8574;SDS011;4325;42.520;27.448;2022-08-14T00:52:50;18.30;;;16.43;;
8574;SDS011;4325;42.520;27.448;2022-08-14T00:55:17;18.37;;;16.50;;
8574;SDS011;4325;42.520;27.448;2022-08-14T00:57:45;20.83;;;17.30;;
8574;SDS011;4325;42.520;27.448;2022-08-14T01:00:34;24.87;;;17.20;;
8574;SDS011;4325;42.520;27.448;2022-08-14T01:03:02;21.53;;;17.67;;
8574;SDS011;4325;42.520;27.448;2022-08-14T01:05:29;22.93;;;16.90;;
8574;SDS011;4325;42.520;27.448;2022-08-14T01:07:58;19.40;;;17.40;;
8574;SDS011;4325;42.520;27.448;2022-08-14T01:10:27;19.03;;;16.47;;
8574;SDS011;4325;42.520;27.448;2022-08-14T01:13:08;23.63;;;17.40;;
8574;SDS011;4325;42.520;27.448;2022-08-14T01:15:37;22.70;;;17.53;;
8574;SDS011;4325;42.520;27.448;2022-08-14T01:18:04;18.27;;;16.53;;
8574;SDS011;4325;42.520;27.448;2022-08-14T01:20:49;20.47;;;17.10;;
8574;SDS011;4325;42.520;27.448;2022-08-14T01:23:35;20.73;;;16.80;;
8574;SDS011;4325;42.520;27.448;2022-08-14T01:26:05;20.23;;;17.33;;
8574;SDS011;4325;42.520;27.448;2022-08-14T01:28:32;18.53;;;16.60;;
8574;SDS011;4325;42.520;27.448;2022-08-14T01:31:03;17.87;;;16.20;;
8574;SDS011;4325;42.520;27.448;2022-08-14T01:33:33;18.57;;;16.73;;
8574;SDS011;4325;42.520;27.448;2022-08-14T01:36:04;20.30;;;16.90;;
8574;SDS011;4325;42.520;27.448;2022-08-14T01:38:35;20.43;;;18.27;;
8574;SDS011;4325;42.520;27.448;2022-08-14T01:41:04;20.37;;;17.60;;
8574;SDS011;4325;42.520;27.448;2022-08-14T01:43:40;19.07;;;17.07;;
8574;SDS011;4325;42.520;27.448;2022-08-14T01:46:09;25.37;;;17.30;;
8574;SDS011;4325;42.520;27.448;2022-08-14T01:48:37;20.67;;;18.60;;
8574;SDS011;4325;42.520;27.448;2022-08-14T01:51:08;22.47;;;18.17;;
8574;SDS011;4325;42.520;27.448;2022-08-14T01:53:39;19.93;;;17.73;;
8574;SDS011;4325;42.520;27.448;2022-08-14T01:56:07;20.10;;;17.63;;
8574;SDS011;4325;42.520;27.448;2022-08-14T01:58:34;20.77;;;17.53;;
8574;SDS011;4325;42.520;27.448;2022-08-14T02:01:02;18.83;;;16.83;;
8574;SDS011;4325;42.520;27.448;2022-08-14T02:03:30;20.37;;;17.47;;
8574;SDS011;4325;42.520;27.448;2022-08-14T02:05:59;19.97;;;17.93;;
8574;SDS011;4325;42.520;27.448;2022-08-14T02:08:27;19.40;;;17.53;;
8574;SDS011;4325;42.520;27.448;2022-08-14T02:10:57;20.93;;;17.77;;
8574;SDS011;4325;42.520;27.448;2022-08-14T02:13:43;19.27;;;17.43;;
8574;SDS011;4325;42.520;27.448;2022-08-14T02:16:11;22.07;;;17.10;;
8574;SDS011;4325;42.520;27.448;2022-08-14T02:18:40;19.07;;;16.93;;
8574;SDS011;4325;42.520;27.448;2022-08-14T02:21:07;21.33;;;17.50;;
8574;SDS011;4325;42.520;27.448;2022-08-14T02:23:36;22.60;;;17.73;;
8574;SDS011;4325;42.520;27.448;2022-08-14T02:26:13;21.30;;;17.90;;
8574;SDS011;4325;42.520;27.448;2022-08-14T02:28:41;22.67;;;17.93;;
8574;SDS011;4325;42.520;27.448;2022-08-14T02:31:09;20.10;;;17.50;;
8574;SDS011;4325;42.520;27.448;2022-08-14T02:33:37;21.10;;;17.03;;
8574;SDS011;4325;42.520;27.448;2022-08-14T02:36:06;19.30;;;17.13;;
8574;SDS011;4325;42.520;27.448;2022-08-14T02:38:34;19.80;;;17.47;;
8574;SDS011;4325;42.520;27.448;2022-08-14T02:41:01;21.87;;;17.53;;
8574;SDS011;4325;42.520;27.448;2022-08-14T02:43:31;19.03;;;17.00;;
8574;SDS011;4325;42.520;27.448;2022-08-14T02:45:58;20.90;;;16.47;;
8574;SDS011;4325;42.520;27.448;2022-08-14T02:48:26;18.40;;;16.57;;
8574;SDS011;4325;42.520;27.448;2022-08-14T02:51:01;19.37;;;16.50;;
8574;SDS011;4325;42.520;27.448;2022-08-14T02:53:31;18.43;;;16.53;;
8574;SDS011;4325;42.520;27.448;2022-08-14T02:55:58;22.17;;;18.47;;
8574;SDS011;4325;42.520;27.448;2022-08-14T02:58:26;19.30;;;17.23;;
8574;SDS011;4325;42.520;27.448;2022-08-14T03:00:56;24.90;;;21.10;;
8574;SDS011;4325;42.520;27.448;2022-08-14T03:03:23;23.20;;;20.17;;
8574;SDS011;4325;42.520;27.448;2022-08-14T03:05:51;19.47;;;16.53;;
8574;SDS011;4325;42.520;27.448;2022-08-14T03:08:19;20.97;;;18.77;;
8574;SDS011;4325;42.520;27.448;2022-08-14T03:10:46;19.20;;;17.20;;
8574;SDS011;4325;42.520;27.448;2022-08-14T03:13:14;19.97;;;18.10;;
8574;SDS011;4325;42.520;27.448;2022-08-14T03:15:41;21.97;;;18.53;;
8574;SDS011;4325;42.520;27.448;2022-08-14T03:18:12;20.70;;;18.73;;
8574;SDS011;4325;42.520;27.448;2022-08-14T03:20:40;22.30;;;18.40;;
8574;SDS011;4325;42.520;27.448;2022-08-14T03:23:07;20.97;;;18.87;;
8574;SDS011;4325;42.520;27.448;2022-08-14T03:25:34;21.57;;;19.30;;
8574;SDS011;4325;42.520;27.448;2022-08-14T03:28:02;22.90;;;18.33;;
8574;SDS011;4325;42.520;27.448;2022-08-14T03:30:31;22.67;;;19.90;;
8574;SDS011;4325;42.520;27.448;2022-08-14T03:32:58;21.33;;;19.27;;
8574;SDS011;4325;42.520;27.448;2022-08-14T03:35:27;20.47;;;18.57;;
8574;SDS011;4325;42.520;27.448;2022-08-14T03:37:55;22.23;;;18.13;;
8574;SDS011;4325;42.520;27.448;2022-08-14T03:40:29;20.97;;;18.90;;
8574;SDS011;4325;42.520;27.448;2022-08-14T03:42:56;21.17;;;18.13;;
8574;SDS011;4325;42.520;27.448;2022-08-14T03:45:23;20.20;;;18.27;;
8574;SDS011;4325;42.520;27.448;2022-08-14T03:47:50;20.77;;;18.67;;
8574;SDS011;4325;42.520;27.448;2022-08-14T03:50:16;26.17;;;19.47;;
8574;SDS011;4325;42.520;27.448;2022-08-14T03:52:45;20.13;;;18.13;;
8574;SDS011;4325;42.520;27.448;2022-08-14T03:55:12;23.50;;;21.23;;
8574;SDS011;4325;42.520;27.448;2022-08-14T03:57:39;23.47;;;18.83;;
8574;SDS011;4325;42.520;27.448;2022-08-14T04:00:07;20.60;;;18.60;;
8574;SDS011;4325;42.520;27.448;2022-08-14T04:02:37;21.40;;;18.60;;
8574;SDS011;4325;42.520;27.448;2022-08-14T04:05:06;24.67;;;20.43;;
8574;SDS011;4325;42.520;27.448;2022-08-14T04:07:35;20.97;;;18.97;;
8574;SDS011;4325;42.520;27.448;2022-08-14T04:10:05;22.27;;;19.43;;
8574;SDS011;4325;42.520;27.448;2022-08-14T04:12:33;26.37;;;19.30;;
8574;SDS011;4325;42.520;27.448;2022-08-14T04:15:00;21.70;;;17.90;;
8574;SDS011;4325;42.520;27.448;2022-08-14T04:17:26;26.70;;;20.50;;
8574;SDS011;4325;42.520;27.448;2022-08-14T04:19:54;22.33;;;19.33;;
8574;SDS011;4325;42.520;27.448;2022-08-14T04:22:21;20.63;;;18.50;;
8574;SDS011;4325;42.520;27.448;2022-08-14T04:24:49;20.67;;;18.40;;
8574;SDS011;4325;42.520;27.448;2022-08-14T04:27:18;24.23;;;18.17;;
8574;SDS011;4325;42.520;27.448;2022-08-14T04:29:45;20.57;;;18.47;;
8574;SDS011;4325;42.520;27.448;2022-08-14T04:32:13;19.87;;;17.87;;
8574;SDS011;4325;42.520;27.448;2022-08-14T04:34:41;21.37;;;18.93;;
8574;SDS011;4325;42.520;27.448;2022-08-14T04:37:09;20.40;;;18.03;;
8574;SDS011;4325;42.520;27.448;2022-08-14T04:39:53;21.00;;;18.80;;
8574;SDS011;4325;42.520;27.448;2022-08-14T04:42:40;19.57;;;17.67;;
8574;SDS011;4325;42.520;27.448;2022-08-14T04:45:25;21.77;;;19.33;;
8574;SDS011;4325;42.520;27.448;2022-08-14T04:47:56;24.10;;;21.57;;
8574;SDS011;4325;42.520;27.448;2022-08-14T04:50:40;23.10;;;19.00;;
8574;SDS011;4325;42.520;27.448;2022-08-14T04:53:08;21.60;;;19.30;;
8574;SDS011;4325;42.520;27.448;2022-08-14T04:55:37;23.60;;;19.43;;
8574;SDS011;4325;42.520;27.448;2022-08-14T04:58:05;21.53;;;18.73;;
8574;SDS011;4325;42.520;27.448;2022-08-14T05:00:34;20.73;;;18.70;;
8574;SDS011;4325;42.520;27.448;2022-08-14T05:03:04;19.03;;;17.17;;
8574;SDS011;4325;42.520;27.448;2022-08-14T05:05:31;20.43;;;18.30;;
8574;SDS011;4325;42.520;27.448;2022-08-14T05:08:05;20.03;;;16.93;;
8574;SDS011;4325;42.520;27.448;2022-08-14T05:10:37;19.53;;;17.63;;
8574;SDS011;4325;42.520;27.448;2022-08-14T05:13:07;19.13;;;17.33;;
8574;SDS011;4325;42.520;27.448;2022-08-14T05:15:35;25.33;;;16.73;;
8574;SDS011;4325;42.520;27.448;2022-08-14T05:18:07;20.43;;;18.20;;
8574;SDS011;4325;42.520;27.448;2022-08-14T05:20:36;19.03;;;16.70;;
8574;SDS011;4325;42.520;27.448;2022-08-14T05:23:04;21.93;;;16.93;;
8574;SDS011;4325;42.520;27.448;2022-08-14T05:25:32;19.53;;;16.57;;
8574;SDS011;4325;42.520;27.448;2022-08-14T05:28:05;19.53;;;16.70;;
8574;SDS011;4325;42.520;27.448;2022-08-14T05:30:35;27.23;;;16.30;;
8574;SDS011;4325;42.520;27.448;2022-08-14T05:33:02;17.20;;;15.63;;
8574;SDS011;4325;42.520;27.448;2022-08-14T05:35:29;23.13;;;16.60;;
8574;SDS011;4325;42.520;27.448;2022-08-14T05:37:57;18.60;;;16.63;;
8574;SDS011;4325;42.520;27.448;2022-08-14T05:40:24;19.20;;;16.23;;
8574;SDS011;4325;42.520;27.448;2022-08-14T05:42:51;17.93;;;16.00;;
8574;SDS011;4325;42.520;27.448;2022-08-14T05:45:19;16.60;;;15.03;;
8574;SDS011;4325;42.520;27.448;2022-08-14T05:47:46;17.73;;;15.43;;
8574;SDS011;4325;42.520;27.448;2022-08-14T05:50:13;20.07;;;15.00;;
8574;SDS011;4325;42.520;27.448;2022-08-14T05:52:40;18.23;;;15.47;;
8574;SDS011;4325;42.520;27.448;2022-08-14T05:55:07;18.23;;;16.17;;
8574;SDS011;4325;42.520;27.448;2022-08-14T05:57:44;17.50;;;15.80;;
8574;SDS011;4325;42.520;27.448;2022-08-14T06:00:13;17.43;;;14.97;;
8574;SDS011;4325;42.520;27.448;2022-08-14T06:02:42;21.67;;;15.50;;
8574;SDS011;4325;42.520;27.448;2022-08-14T06:05:10;22.67;;;14.37;;
8574;SDS011;4325;42.520;27.448;2022-08-14T06:07:36;19.23;;;15.33;;
8574;SDS011;4325;42.520;27.448;2022-08-14T06:10:05;28.40;;;14.67;;
8574;SDS011;4325;42.520;27.448;2022-08-14T06:12:33;17.37;;;15.53;;
8574;SDS011;4325;42.520;27.448;2022-08-14T06:15:00;16.83;;;15.23;;
8574;SDS011;4325;42.520;27.448;2022-08-14T06:17:28;16.27;;;14.60;;
8574;SDS011;4325;42.520;27.448;2022-08-14T06:19:56;17.73;;;15.70;;
8574;SDS011;4325;42.520;27.448;2022-08-14T06:22:24;18.97;;;14.10;;
8574;SDS011;4325;42.520;27.448;2022-08-14T06:24:51;15.97;;;14.47;;
8574;SDS011;4325;42.520;27.448;2022-08-14T06:27:18;17.20;;;14.97;;
8574;SDS011;4325;42.520;27.448;2022-08-14T06:29:45;14.93;;;13.40;;
8574;SDS011;4325;42.520;27.448;2022-08-14T06:32:12;15.33;;;13.77;;
8574;SDS011;4325;42.520;27.448;2022-08-14T06:34:39;20.33;;;13.33;;
8574;SDS011;4325;42.520;27.448;2022-08-14T06:37:07;15.90;;;12.47;;
8574;SDS011;4325;42.520;27.448;2022-08-14T06:39:34;17.73;;;13.40;;
8574;SDS011;4325;42.520;27.448;2022-08-14T06:42:01;17.53;;;12.87;;
8574;SDS011;4325;42.520;27.448;2022-08-14T06:44:28;21.20;;;12.83;;
8574;SDS011;4325;42.520;27.448;2022-08-14T06:46:55;14.47;;;13.00;;
8574;SDS011;4325;42.520;27.448;2022-08-14T06:49:24;17.97;;;12.43;;
8574;SDS011;4325;42.520;27.448;2022-08-14T06:51:51;15.67;;;13.27;;
8574;SDS011;4325;42.520;27.448;2022-08-14T06:54:20;18.43;;;13.97;;
8574;SDS011;4325;42.520;27.448;2022-08-14T06:56:46;18.00;;;12.17;;
8574;SDS011;4325;42.520;27.448;2022-08-14T06:59:13;17.47;;;11.57;;
8574;SDS011;4325;42.520;27.448;2022-08-14T07:01:40;14.33;;;12.00;;
8574;SDS011;4325;42.520;27.448;2022-08-14T07:04:25;17.67;;;12.70;;
8574;SDS011;4325;42.520;27.448;2022-08-14T07:07:09;23.23;;;12.27;;
8574;SDS011;4325;42.520;27.448;2022-08-14T07:09:37;15.03;;;12.13;;
8574;SDS011;4325;42.520;27.448;2022-08-14T07:12:04;13.23;;;11.83;;
8574;SDS011;4325;42.520;27.448;2022-08-14T07:14:33;15.80;;;11.37;;
8574;SDS011;4325;42.520;27.448;2022-08-14T07:16:59;15.40;;;11.70;;
8574;SDS011;4325;42.520;27.448;2022-08-14T07:19:26;18.17;;;11.43;;
8574;SDS011;4325;42.520;27.448;2022-08-14T07:21:53;15.27;;;13.20;;
8574;SDS011;4325;42.520;27.448;2022-08-14T07:24:20;23.57;;;12.07;;
8574;SDS011;4325;42.520;27.448;2022-08-14T07:26:49;13.07;;;11.77;;
8574;SDS011;4325;42.520;27.448;2022-08-14T07:29:18;13.77;;;11.97;;
8574;SDS011;4325;42.520;27.448;2022-08-14T07:31:48;15.40;;;11.40;;
8574;SDS011;4325;42.520;27.448;2022-08-14T07:34:15;16.20;;;12.03;;
8574;SDS011;4325;42.520;27.448;2022-08-14T07:36:43;15.13;;;11.60;;
8574;SDS011;4325;42.520;27.448;2022-08-14T07:39:10;18.57;;;12.10;;
8574;SDS011;4325;42.520;27.448;2022-08-14T07:41:37;18.53;;;11.47;;
8574;SDS011;4325;42.520;27.448;2022-08-14T07:44:05;20.73;;;11.90;;
8574;SDS011;4325;42.520;27.448;2022-08-14T07:46:32;15.67;;;11.80;;
8574;SDS011;4325;42.520;27.448;2022-08-14T07:48:59;15.57;;;12.00;;
8574;SDS011;4325;42.520;27.448;2022-08-14T07:51:26;15.13;;;11.63;;
8574;SDS011;4325;42.520;27.448;2022-08-14T07:53:53;20.20;;;11.10;;
8574;SDS011;4325;42.520;27.448;2022-08-14T07:56:20;16.47;;;11.90;;
8574;SDS011;4325;42.520;27.448;2022-08-14T07:58:47;15.73;;;11.43;;
8574;SDS011;4325;42.520;27.448;2022-08-14T08:01:15;13.00;;;11.70;;
8574;SDS011;4325;42.520;27.448;2022-08-14T08:03:43;18.93;;;11.23;;
8574;SDS011;4325;42.520;27.448;2022-08-14T08:06:13;17.70;;;11.60;;
8574;SDS011;4325;42.520;27.448;2022-08-14T08:08:42;15.63;;;11.37;;
8574;SDS011;4325;42.520;27.448;2022-08-14T08:11:09;19.13;;;11.93;;
8574;SDS011;4325;42.520;27.448;2022-08-14T08:13:37;18.60;;;10.33;;
8574;SDS011;4325;42.520;27.448;2022-08-14T08:16:07;16.33;;;10.80;;
8574;SDS011;4325;42.520;27.448;2022-08-14T08:18:36;17.03;;;10.70;;
8574;SDS011;4325;42.520;27.448;2022-08-14T08:21:03;16.37;;;11.63;;
8574;SDS011;4325;42.520;27.448;2022-08-14T08:23:30;18.30;;;10.57;;
8574;SDS011;4325;42.520;27.448;2022-08-14T08:25:58;12.63;;;10.37;;
8574;SDS011;4325;42.520;27.448;2022-08-14T08:28:25;14.17;;;11.13;;
8574;SDS011;4325;42.520;27.448;2022-08-14T08:30:53;13.27;;;10.07;;
8574;SDS011;4325;42.520;27.448;2022-08-14T08:33:22;16.10;;;10.77;;
8574;SDS011;4325;42.520;27.448;2022-08-14T08:35:53;15.30;;;10.13;;
8574;SDS011;4325;42.520;27.448;2022-08-14T08:38:25;13.63;;;11.37;;
8574;SDS011;4325;42.520;27.448;2022-08-14T08:40:53;14.00;;;11.57;;
8574;SDS011;4325;42.520;27.448;2022-08-14T08:43:22;13.97;;;10.07;;
8574;SDS011;4325;42.520;27.448;2022-08-14T08:45:53;12.77;;;10.00;;
8574;SDS011;4325;42.520;27.448;2022-08-14T08:48:22;13.63;;;9.53;;
8574;SDS011;4325;42.520;27.448;2022-08-14T08:50:54;10.50;;;9.27;;
8574;SDS011;4325;42.520;27.448;2022-08-14T08:53:22;12.47;;;9.90;;
8574;SDS011;4325;42.520;27.448;2022-08-14T08:55:56;14.05;;;9.57;;
8574;SDS011;4325;42.520;27.448;2022-08-14T08:58:22;12.02;;;9.73;;
8574;SDS011;4325;42.520;27.448;2022-08-14T09:00:50;15.68;;;10.15;;
8574;SDS011;4325;42.520;27.448;2022-08-14T09:03:19;11.95;;;9.07;;
8574;SDS011;4325;42.520;27.448;2022-08-14T09:05:48;19.65;;;10.15;;
8574;SDS011;4325;42.520;27.448;2022-08-14T09:08:19;13.40;;;10.20;;
8574;SDS011;4325;42.520;27.448;2022-08-14T09:10:49;12.18;;;9.75;;
8574;SDS011;4325;42.520;27.448;2022-08-14T09:13:16;13.05;;;9.85;;
8574;SDS011;4325;42.520;27.448;2022-08-14T09:15:44;13.73;;;9.43;;
8574;SDS011;4325;42.520;27.448;2022-08-14T09:18:13;11.05;;;8.82;;
8574;SDS011;4325;42.520;27.448;2022-08-14T09:20:42;14.93;;;10.30;;
8574;SDS011;4325;42.520;27.448;2022-08-14T09:23:11;12.65;;;10.13;;
8574;SDS011;4325;42.520;27.448;2022-08-14T09:25:41;12.27;;;9.05;;
8574;SDS011;4325;42.520;27.448;2022-08-14T09:28:10;12.50;;;8.95;;
8574;SDS011;4325;42.520;27.448;2022-08-14T09:30:37;11.70;;;9.82;;
8574;SDS011;4325;42.520;27.448;2022-08-14T09:33:15;15.57;;;9.90;;
8574;SDS011;4325;42.520;27.448;2022-08-14T09:36:02;10.07;;;9.07;;
8574;SDS011;4325;42.520;27.448;2022-08-14T09:38:45;10.85;;;8.43;;
8574;SDS011;4325;42.520;27.448;2022-08-14T09:41:17;13.63;;;9.77;;
8574;SDS011;4325;42.520;27.448;2022-08-14T09:43:58;12.30;;;9.45;;
8574;SDS011;4325;42.520;27.448;2022-08-14T09:46:28;11.45;;;9.48;;
8574;SDS011;4325;42.520;27.448;2022-08-14T09:48:58;11.25;;;9.70;;
8574;SDS011;4325;42.520;27.448;2022-08-14T09:51:25;11.85;;;9.35;;
8574;SDS011;4325;42.520;27.448;2022-08-14T09:54:01;10.82;;;9.57;;
8574;SDS011;4325;42.520;27.448;2022-08-14T09:56:44;14.75;;;10.15;;
8574;SDS011;4325;42.520;27.448;2022-08-14T09:59:13;11.75;;;9.88;;
8574;SDS011;4325;42.520;27.448;2022-08-14T10:01:42;13.50;;;9.55;;
8574;SDS011;4325;42.520;27.448;2022-08-14T10:04:16;11.38;;;9.68;;
8574;SDS011;4325;42.520;27.448;2022-08-14T10:06:44;10.50;;;8.93;;
8574;SDS011;4325;42.520;27.448;2022-08-14T10:09:12;12.43;;;9.82;;
8574;SDS011;4325;42.520;27.448;2022-08-14T10:11:39;12.68;;;9.15;;
8574;SDS011;4325;42.520;27.448;2022-08-14T10:14:13;10.20;;;9.25;;
8574;SDS011;4325;42.520;27.448;2022-08-14T10:16:42;10.77;;;9.68;;
8574;SDS011;4325;42.520;27.448;2022-08-14T10:19:12;9.23;;;7.97;;
8574;SDS011;4325;42.520;27.448;2022-08-14T10:21:41;11.00;;;9.10;;
8574;SDS011;4325;42.520;27.448;2022-08-14T10:24:10;10.75;;;8.93;;
8574;SDS011;4325;42.520;27.448;2022-08-14T10:26:51;11.98;;;8.98;;
8574;SDS011;4325;42.520;27.448;2022-08-14T10:29:28;12.63;;;8.80;;
8574;SDS011;4325;42.520;27.448;2022-08-14T10:31:57;11.93;;;8.13;;
8574;SDS011;4325;42.520;27.448;2022-08-14T10:34:29;14.23;;;8.80;;
8574;SDS011;4325;42.520;27.448;2022-08-14T10:37:01;17.65;;;8.90;;
8574;SDS011;4325;42.520;27.448;2022-08-14T10:39:29;10.05;;;8.52;;
8574;SDS011;4325;42.520;27.448;2022-08-14T10:41:59;9.93;;;8.80;;
8574;SDS011;4325;42.520;27.448;2022-08-14T10:44:33;9.98;;;8.63;;
8574;SDS011;4325;42.520;27.448;2022-08-14T10:47:03;11.80;;;9.40;;
8574;SDS011;4325;42.520;27.448;2022-08-14T10:49:33;9.63;;;8.68;;
8574;SDS011;4325;42.520;27.448;2022-08-14T10:52:01;9.23;;;8.32;;
8574;SDS011;4325;42.520;27.448;2022-08-14T10:54:32;13.07;;;9.02;;
8574;SDS011;4325;42.520;27.448;2022-08-14T10:57:14;12.98;;;9.50;;
8574;SDS011;4325;42.520;27.448;2022-08-14T10:59:47;11.60;;;8.70;;
8574;SDS011;4325;42.520;27.448;2022-08-14T11:02:22;13.02;;;9.32;;
8574;SDS011;4325;42.520;27.448;2022-08-14T11:05:00;13.80;;;10.00;;
8574;SDS011;4325;42.520;27.448;2022-08-14T11:07:31;13.93;;;9.80;;
8574;SDS011;4325;42.520;27.448;2022-08-14T11:10:00;10.10;;;8.95;;
8574;SDS011;4325;42.520;27.448;2022-08-14T11:12:38;15.00;;;9.82;;
8574;SDS011;4325;42.520;27.448;2022-08-14T11:15:16;10.98;;;9.27;;
8574;SDS011;4325;42.520;27.448;2022-08-14T11:17:44;11.15;;;10.05;;
8574;SDS011;4325;42.520;27.448;2022-08-14T11:20:19;11.25;;;10.05;;
8574;SDS011;4325;42.520;27.448;2022-08-14T11:22:48;11.52;;;10.07;;
8574;SDS011;4325;42.520;27.448;2022-08-14T11:25:19;15.63;;;10.13;;
8574;SDS011;4325;42.520;27.448;2022-08-14T11:27:48;15.23;;;10.75;;
8574;SDS011;4325;42.520;27.448;2022-08-14T11:30:18;11.60;;;10.40;;
8574;SDS011;4325;42.520;27.448;2022-08-14T11:32:47;11.57;;;10.38;;
8574;SDS011;4325;42.520;27.448;2022-08-14T11:35:16;14.40;;;10.20;;
8574;SDS011;4325;42.520;27.448;2022-08-14T11:37:48;16.17;;;10.18;;
8574;SDS011;4325;42.520;27.448;2022-08-14T11:40:20;11.77;;;10.43;;
8574;SDS011;4325;42.520;27.448;2022-08-14T11:42:49;17.05;;;10.55;;
8574;SDS011;4325;42.520;27.448;2022-08-14T11:45:21;13.85;;;10.45;;
8574;SDS011;4325;42.520;27.448;2022-08-14T11:47:50;13.80;;;11.05;;
8574;SDS011;4325;42.520;27.448;2022-08-14T11:50:19;14.23;;;10.35;;
8574;SDS011;4325;42.520;27.448;2022-08-14T11:52:48;13.18;;;10.95;;
8574;SDS011;4325;42.520;27.448;2022-08-14T11:55:16;13.80;;;9.82;;
8574;SDS011;4325;42.520;27.448;2022-08-14T11:57:44;15.50;;;10.27;;
8574;SDS011;4325;42.520;27.448;2022-08-14T12:00:12;14.45;;;10.27;;
8574;SDS011;4325;42.520;27.448;2022-08-14T12:02:51;13.68;;;9.43;;
8574;SDS011;4325;42.520;27.448;2022-08-14T12:05:29;11.23;;;10.02;;
8574;SDS011;4325;42.520;27.448;2022-08-14T12:07:58;13.68;;;10.68;;
8574;SDS011;4325;42.520;27.448;2022-08-14T12:10:26;10.75;;;8.98;;
8574;SDS011;4325;42.520;27.448;2022-08-14T12:12:54;13.82;;;9.85;;
8574;SDS011;4325;42.520;27.448;2022-08-14T12:15:28;10.70;;;9.63;;
8574;SDS011;4325;42.520;27.448;2022-08-14T12:17:58;14.13;;;10.45;;
8574;SDS011;4325;42.520;27.448;2022-08-14T12:20:28;13.43;;;10.20;;
8574;SDS011;4325;42.520;27.448;2022-08-14T12:22:56;11.60;;;10.18;;
8574;SDS011;4325;42.520;27.448;2022-08-14T12:25:25;11.38;;;10.23;;
8574;SDS011;4325;42.520;27.448;2022-08-14T12:27:52;12.75;;;10.73;;
8574;SDS011;4325;42.520;27.448;2022-08-14T12:30:24;16.15;;;10.75;;
8574;SDS011;4325;42.520;27.448;2022-08-14T12:32:53;16.50;;;10.70;;
8574;SDS011;4325;42.520;27.448;2022-08-14T12:35:22;13.00;;;11.50;;
8574;SDS011;4325;42.520;27.448;2022-08-14T12:37:49;14.77;;;11.73;;
8574;SDS011;4325;42.520;27.448;2022-08-14T12:40:17;14.03;;;12.23;;
8574;SDS011;4325;42.520;27.448;2022-08-14T12:42:48;13.13;;;11.70;;
8574;SDS011;4325;42.520;27.448;2022-08-14T12:45:17;12.80;;;11.37;;
8574;SDS011;4325;42.520;27.448;2022-08-14T12:48:01;15.93;;;12.00;;
8574;SDS011;4325;42.520;27.448;2022-08-14T12:50:37;23.03;;;12.60;;
8574;SDS011;4325;42.520;27.448;2022-08-14T12:53:06;19.03;;;12.37;;
8574;SDS011;4325;42.520;27.448;2022-08-14T12:55:33;14.10;;;12.60;;
8574;SDS011;4325;42.520;27.448;2022-08-14T12:58:01;14.20;;;12.37;;
8574;SDS011;4325;42.520;27.448;2022-08-14T13:00:30;14.60;;;13.10;;
8574;SDS011;4325;42.520;27.448;2022-08-14T13:02:59;15.67;;;11.83;;
8574;SDS011;4325;42.520;27.448;2022-08-14T13:05:28;17.07;;;12.87;;
8574;SDS011;4325;42.520;27.448;2022-08-14T13:07:58;13.43;;;12.07;;
8574;SDS011;4325;42.520;27.448;2022-08-14T13:10:30;20.70;;;14.00;;
8574;SDS011;4325;42.520;27.448;2022-08-14T13:12:59;21.57;;;13.30;;
8574;SDS011;4325;42.520;27.448;2022-08-14T13:15:26;18.27;;;13.33;;
8574;SDS011;4325;42.520;27.448;2022-08-14T13:17:54;17.83;;;11.80;;
8574;SDS011;4325;42.520;27.448;2022-08-14T13:20:22;16.67;;;13.03;;
8574;SDS011;4325;42.520;27.448;2022-08-14T13:22:51;15.13;;;11.93;;
8574;SDS011;4325;42.520;27.448;2022-08-14T13:25:21;16.20;;;11.07;;
8574;SDS011;4325;42.520;27.448;2022-08-14T13:27:50;16.67;;;12.40;;
8574;SDS011;4325;42.520;27.448;2022-08-14T13:30:21;17.60;;;12.70;;
8574;SDS011;4325;42.520;27.448;2022-08-14T13:32:50;18.47;;;12.70;;
8574;SDS011;4325;42.520;27.448;2022-08-14T13:35:18;13.53;;;12.10;;
8574;SDS011;4325;42.520;27.448;2022-08-14T13:37:48;20.33;;;13.83;;
8574;SDS011;4325;42.520;27.448;2022-08-14T13:40:17;13.30;;;12.00;;
8574;SDS011;4325;42.520;27.448;2022-08-14T13:42:47;17.73;;;11.77;;
8574;SDS011;4325;42.520;27.448;2022-08-14T13:45:17;18.70;;;12.53;;
8574;SDS011;4325;42.520;27.448;2022-08-14T13:47:46;13.97;;;12.10;;
8574;SDS011;4325;42.520;27.448;2022-08-14T13:50:14;17.27;;;12.57;;
8574;SDS011;4325;42.520;27.448;2022-08-14T13:52:46;17.73;;;13.87;;
8574;SDS011;4325;42.520;27.448;2022-08-14T13:55:18;15.27;;;13.67;;
8574;SDS011;4325;42.520;27.448;2022-08-14T13:57:48;22.60;;;13.40;;
8574;SDS011;4325;42.520;27.448;2022-08-14T14:00:16;14.27;;;12.43;;
8574;SDS011;4325;42.520;27.448;2022-08-14T14:02:44;22.20;;;12.70;;
8574;SDS011;4325;42.520;27.448;2022-08-14T14:05:13;19.17;;;12.37;;
8574;SDS011;4325;42.520;27.448;2022-08-14T14:07:43;18.53;;;12.97;;
8574;SDS011;4325;42.520;27.448;2022-08-14T14:10:11;13.03;;;11.83;;
8574;SDS011;4325;42.520;27.448;2022-08-14T14:12:39;18.37;;;12.67;;
8574;SDS011;4325;42.520;27.448;2022-08-14T14:15:08;14.23;;;12.23;;
8574;SDS011;4325;42.520;27.448;2022-08-14T14:17:38;18.10;;;13.37;;
8574;SDS011;4325;42.520;27.448;2022-08-14T14:20:06;19.27;;;14.80;;
8574;SDS011;4325;42.520;27.448;2022-08-14T14:22:35;14.13;;;12.63;;
8574;SDS011;4325;42.520;27.448;2022-08-14T14:25:06;20.83;;;12.33;;
8574;SDS011;4325;42.520;27.448;2022-08-14T14:27:33;19.23;;;12.73;;
8574;SDS011;4325;42.520;27.448;2022-08-14T14:30:03;17.03;;;13.20;;
8574;SDS011;4325;42.520;27.448;2022-08-14T14:32:33;15.23;;;13.70;;
8574;SDS011;4325;42.520;27.448;2022-08-14T14:35:09;17.03;;;13.13;;
8574;SDS011;4325;42.520;27.448;2022-08-14T14:37:38;13.97;;;12.10;;
8574;SDS011;4325;42.520;27.448;2022-08-14T14:40:08;16.40;;;11.67;;
8574;SDS011;4325;42.520;27.448;2022-08-14T14:42:40;16.73;;;11.10;;
8574;SDS011;4325;42.520;27.448;2022-08-14T14:45:12;16.97;;;11.47;;
8574;SDS011;4325;42.520;27.448;2022-08-14T14:47:41;13.90;;;12.53;;
8574;SDS011;4325;42.520;27.448;2022-08-14T14:50:09;16.10;;;11.47;;